SACO

Ingeniero Ambrosio Taravella Airport

Cordoba, Argentina
TAF SACO 201700Z 2018/2118 16005KT 9999 SCT020 TX32/2119Z TN20/2110Z TEMPO 2103/2106 09010KT 9999 VCTS SCT020 BKN040 FEW045CB PROB30 TEMPO 2108/2110 23005KT 5000 BR SCT020 BECMG 2112/2115 09005KT 9999 SCT030
Issued Valid From Valid To
Apr-20 @ 17:00 UTC
(an hour ago)
Apr-20 @ 18:00 UTC
(28 minutes ago)
Apr-21 @ 18:00 UTC
(in 24 hours)
Apr-20 @ 18:00 to Apr-21 @ 12:00
TAF SACO 201700Z 2018/2118 16005KT 9999 SCT020 TX32/2119Z TN20/2110Z
Wind Visibility Clouds
160° at 5 knots 10,000+ meters
  • Scattered at 2,000' AGL
Temporary Apr-21 @ 03:00 to Apr-21 @ 06:00
TEMPO 2103/2106 09010KT 9999 VCTS SCT020 BKN040 FEW045CB
Wind Visibility Clouds Conditions
90° at 10 knots 10,000+ meters
  • Scattered at 2,000' AGL
  • Broken at 4,000' AGL
  • Few at 4,500' AGL
  • Area Thunderstorm
Temporary  (Probability 30%) Apr-21 @ 08:00 to Apr-21 @ 10:00
PROB30 TEMPO 2108/2110 23005KT 5000 BR SCT020
Wind Visibility Clouds Conditions
230° at 5 knots 5,005 meters
  • Scattered at 2,000' AGL
  • Mist
Becoming Apr-21 @ 12:00 to Apr-21 @ 18:00
BECMG 2112/2115 09005KT 9999 SCT030
Wind Visibility Clouds
90° at 5 knots 10,000+ meters
  • Scattered at 3,000' AGL
TAF SACO 201700Z 2018/2118 16005KT 9999 SCT020 TX32/2119Z TN20/2110Z TEMPO 2103/2106 09010KT 9999 VCTS SCT020 BKN040 FEW045CB PROB30 TEMPO 2108/2110 23005KT 5000 BR SCT020 BECMG 2112/2115 09005KT 9999 SCT030
Issued Apr-20 @ 17:00 UTC
(an hour ago)
Valid From Apr-20 @ 18:00 UTC
(28 minutes ago)
Valid To Apr-21 @ 18:00 UTC
(in 24 hours)
Apr-20 @ 18:00 - Apr-21 @ 12:00
Wind Visibility
160° at 5 knots 10,000+ meters
Clouds
  • Scattered at 2,000' AGL
Temporary Apr-21 @ 03:00 - Apr-21 @ 06:00
Wind Visibility
90° at 10 knots 10,000+ meters
Clouds
  • Scattered at 2,000' AGL
  • Broken at 4,000' AGL
  • Few at 4,500' AGL
Conditions
  • Area Thunderstorm
Probability 30% Temporary Apr-21 @ 08:00 - Apr-21 @ 10:00
Wind Visibility
230° at 5 knots 5,005 meters
Clouds
  • Scattered at 2,000' AGL
Conditions
  • Mist
Becoming Apr-21 @ 12:00 - Apr-21 @ 18:00
Wind Visibility
90° at 5 knots 10,000+ meters
Clouds
  • Scattered at 3,000' AGL